sensor_id;sensor_type;location;lat;lon;timestamp;pressure;altitude;pressure_sealevel;temperature;humidity
51603;BME280;37954;51.980;5.850;2023-12-29T00:02:17;100353.38;;;11.23;87.15
51603;BME280;37954;51.980;5.850;2023-12-29T00:06:28;100342.63;;;11.23;86.82
51603;BME280;37954;51.980;5.850;2023-12-29T00:10:40;100337.84;;;11.25;86.90
51603;BME280;37954;51.980;5.850;2023-12-29T00:14:53;100334.41;;;11.30;86.42
51603;BME280;37954;51.980;5.850;2023-12-29T00:19:05;100324.25;;;11.32;86.08
51603;BME280;37954;51.980;5.850;2023-12-29T00:23:17;100342.59;;;11.35;85.91
51603;BME280;37954;51.980;5.850;2023-12-29T00:27:28;100336.06;;;11.31;86.99
51603;BME280;37954;51.980;5.850;2023-12-29T00:31:40;100335.50;;;11.17;89.03
51603;BME280;37954;51.980;5.850;2023-12-29T00:35:52;100321.59;;;11.08;90.13
51603;BME280;37954;51.980;5.850;2023-12-29T00:40:05;100311.81;;;11.02;90.77
51603;BME280;37954;51.980;5.850;2023-12-29T00:44:17;100313.34;;;10.98;91.37
51603;BME280;37954;51.980;5.850;2023-12-29T00:48:29;100318.94;;;10.97;91.58
51603;BME280;37954;51.980;5.850;2023-12-29T00:52:41;100314.50;;;11.02;91.19
51603;BME280;37954;51.980;5.850;2023-12-29T00:56:53;100308.91;;;11.04;91.00
51603;BME280;37954;51.980;5.850;2023-12-29T01:01:07;100303.59;;;11.09;90.34
51603;BME280;37954;51.980;5.850;2023-12-29T01:05:20;100292.38;;;11.12;89.96
51603;BME280;37954;51.980;5.850;2023-12-29T01:09:36;100311.53;;;11.15;89.50
51603;BME280;37954;51.980;5.850;2023-12-29T01:13:49;100285.13;;;11.12;89.32
51603;BME280;37954;51.980;5.850;2023-12-29T01:18:01;100275.06;;;11.20;89.29
51603;BME280;37954;51.980;5.850;2023-12-29T01:22:13;100275.06;;;11.20;89.43
51603;BME280;37954;51.980;5.850;2023-12-29T01:26:25;100288.16;;;11.16;89.82
51603;BME280;37954;51.980;5.850;2023-12-29T01:30:36;100281.41;;;11.13;90.22
51603;BME280;37954;51.980;5.850;2023-12-29T01:34:49;100285.38;;;11.11;90.57
51603;BME280;37954;51.980;5.850;2023-12-29T01:39:00;100294.72;;;11.08;90.78
51603;BME280;37954;51.980;5.850;2023-12-29T01:43:14;100286.66;;;11.08;91.18
51603;BME280;37954;51.980;5.850;2023-12-29T01:47:27;100276.41;;;11.05;91.33
51603;BME280;37954;51.980;5.850;2023-12-29T01:51:39;100264.84;;;10.93;91.68
51603;BME280;37954;51.980;5.850;2023-12-29T01:55:51;100281.44;;;11.02;91.74
51603;BME280;37954;51.980;5.850;2023-12-29T02:00:03;100288.34;;;10.98;91.74
51603;BME280;37954;51.980;5.850;2023-12-29T02:04:24;100272.31;;;11.03;91.87
51603;BME280;37954;51.980;5.850;2023-12-29T02:08:37;100283.31;;;11.01;91.78
51603;BME280;37954;51.980;5.850;2023-12-29T02:12:50;100289.25;;;10.92;92.04
51603;BME280;37954;51.980;5.850;2023-12-29T02:17:15;100300.72;;;10.99;92.82
51603;BME280;37954;51.980;5.850;2023-12-29T02:21:31;100295.00;;;10.95;92.68
51603;BME280;37954;51.980;5.850;2023-12-29T02:25:43;100287.88;;;11.01;93.29
51603;BME280;37954;51.980;5.850;2023-12-29T02:34:47;100276.78;;;10.86;94.93
51603;BME280;37954;51.980;5.850;2023-12-29T02:39:01;100268.03;;;10.78;95.97
51603;BME280;37954;51.980;5.850;2023-12-29T02:43:12;100278.69;;;10.73;96.51
51603;BME280;37954;51.980;5.850;2023-12-29T02:47:24;100280.56;;;10.73;96.99
51603;BME280;37954;51.980;5.850;2023-12-29T02:51:38;100272.97;;;10.70;97.34
51603;BME280;37954;51.980;5.850;2023-12-29T02:55:50;100266.53;;;10.71;97.42
51603;BME280;37954;51.980;5.850;2023-12-29T03:00:03;100265.59;;;10.77;97.44
51603;BME280;37954;51.980;5.850;2023-12-29T03:04:15;100266.88;;;10.74;97.31
51603;BME280;37954;51.980;5.850;2023-12-29T03:08:27;100265.13;;;10.80;97.01
51603;BME280;37954;51.980;5.850;2023-12-29T03:12:38;100260.56;;;10.80;97.18
51603;BME280;37954;51.980;5.850;2023-12-29T03:16:50;100261.38;;;10.81;97.50
51603;BME280;37954;51.980;5.850;2023-12-29T03:21:02;100249.03;;;10.68;97.16
51603;BME280;37954;51.980;5.850;2023-12-29T03:25:13;100278.19;;;10.76;96.88
51603;BME280;37954;51.980;5.850;2023-12-29T03:29:25;100267.81;;;10.80;96.46
51603;BME280;37954;51.980;5.850;2023-12-29T03:33:37;100243.50;;;10.75;96.41
51603;BME280;37954;51.980;5.850;2023-12-29T03:37:49;100257.75;;;10.87;95.82
51603;BME280;37954;51.980;5.850;2023-12-29T03:42:01;100260.69;;;10.86;95.75
51603;BME280;37954;51.980;5.850;2023-12-29T03:50:29;100255.66;;;10.89;95.16
51603;BME280;37954;51.980;5.850;2023-12-29T03:54:40;100255.31;;;10.86;94.80
51603;BME280;37954;51.980;5.850;2023-12-29T03:58:53;100251.19;;;10.95;94.55
51603;BME280;37954;51.980;5.850;2023-12-29T04:03:04;100245.22;;;10.93;94.23
51603;BME280;37954;51.980;5.850;2023-12-29T04:07:16;100247.66;;;10.94;94.04
51603;BME280;37954;51.980;5.850;2023-12-29T04:11:28;100253.50;;;10.91;92.82
51603;BME280;37954;51.980;5.850;2023-12-29T04:15:39;100248.50;;;10.95;92.20
51603;BME280;37954;51.980;5.850;2023-12-29T04:19:51;100250.81;;;11.03;91.47
51603;BME280;37954;51.980;5.850;2023-12-29T04:24:04;100248.13;;;11.03;91.14
51603;BME280;37954;51.980;5.850;2023-12-29T04:28:16;100236.69;;;10.96;90.94
51603;BME280;37954;51.980;5.850;2023-12-29T04:32:28;100243.69;;;10.97;90.69
51603;BME280;37954;51.980;5.850;2023-12-29T04:36:39;100236.09;;;10.94;90.23
51603;BME280;37954;51.980;5.850;2023-12-29T04:40:51;100247.66;;;10.94;89.73
51603;BME280;37954;51.980;5.850;2023-12-29T04:45:04;100239.75;;;10.88;89.80
51603;BME280;37954;51.980;5.850;2023-12-29T04:49:15;100252.81;;;10.96;89.38
51603;BME280;37954;51.980;5.850;2023-12-29T04:53:27;100265.53;;;11.00;89.27
51603;BME280;37954;51.980;5.850;2023-12-29T04:57:39;100246.28;;;10.92;88.73
51603;BME280;37954;51.980;5.850;2023-12-29T05:01:51;100269.06;;;11.01;88.85
51603;BME280;37954;51.980;5.850;2023-12-29T05:06:03;100265.53;;;11.00;88.48
51603;BME280;37954;51.980;5.850;2023-12-29T05:10:14;100268.59;;;11.04;88.17
51603;BME280;37954;51.980;5.850;2023-12-29T05:14:26;100262.97;;;11.05;88.33
51603;BME280;37954;51.980;5.850;2023-12-29T05:18:38;100259.69;;;11.03;87.73
51603;BME280;37954;51.980;5.850;2023-12-29T05:22:50;100258.06;;;11.02;87.88
51603;BME280;37954;51.980;5.850;2023-12-29T05:27:01;100257.28;;;10.90;87.68
51603;BME280;37954;51.980;5.850;2023-12-29T05:31:13;100263.47;;;10.91;88.47
51603;BME280;37954;51.980;5.850;2023-12-29T05:35:25;100267.69;;;10.87;88.14
51603;BME280;37954;51.980;5.850;2023-12-29T05:39:36;100254.13;;;10.81;87.86
51603;BME280;37954;51.980;5.850;2023-12-29T05:43:48;100266.75;;;10.81;88.18
51603;BME280;37954;51.980;5.850;2023-12-29T05:48:00;100262.44;;;10.80;87.99
51603;BME280;37954;51.980;5.850;2023-12-29T05:52:12;100256.69;;;10.76;88.17
51603;BME280;37954;51.980;5.850;2023-12-29T05:56:24;100276.00;;;10.73;88.19
51603;BME280;37954;51.980;5.850;2023-12-29T06:00:37;100263.28;;;10.69;88.69
51603;BME280;37954;51.980;5.850;2023-12-29T06:04:51;100277.97;;;10.66;88.59
51603;BME280;37954;51.980;5.850;2023-12-29T06:09:03;100271.78;;;10.66;88.83
51603;BME280;37954;51.980;5.850;2023-12-29T06:13:14;100286.16;;;10.71;89.32
51603;BME280;37954;51.980;5.850;2023-12-29T06:17:26;100257.31;;;10.67;89.17
51603;BME280;37954;51.980;5.850;2023-12-29T06:21:42;100279.03;;;10.65;89.41
51603;BME280;37954;51.980;5.850;2023-12-29T06:25:56;100268.75;;;10.62;89.53
51603;BME280;37954;51.980;5.850;2023-12-29T06:30:08;100269.47;;;10.58;89.64
51603;BME280;37954;51.980;5.850;2023-12-29T06:34:22;100259.22;;;10.55;89.97
51603;BME280;37954;51.980;5.850;2023-12-29T06:38:34;100274.00;;;10.57;90.52
51603;BME280;37954;51.980;5.850;2023-12-29T06:42:46;100271.59;;;10.56;90.67
51603;BME280;37954;51.980;5.850;2023-12-29T06:46:58;100266.44;;;10.54;91.06
51603;BME280;37954;51.980;5.850;2023-12-29T06:51:15;100276.97;;;10.56;91.15
51603;BME280;37954;51.980;5.850;2023-12-29T06:55:28;100285.47;;;10.64;91.57
51603;BME280;37954;51.980;5.850;2023-12-29T06:59:39;100289.44;;;10.62;91.66
51603;BME280;37954;51.980;5.850;2023-12-29T07:03:51;100293.75;;;10.63;92.70
51603;BME280;37954;51.980;5.850;2023-12-29T07:08:03;100264.81;;;10.53;94.15
51603;BME280;37954;51.980;5.850;2023-12-29T07:12:15;100278.22;;;10.53;94.95
51603;BME280;37954;51.980;5.850;2023-12-29T07:16:27;100282.66;;;10.48;96.11
51603;BME280;37954;51.980;5.850;2023-12-29T07:20:39;100262.69;;;10.32;96.94
51603;BME280;37954;51.980;5.850;2023-12-29T07:24:51;100266.66;;;10.29;97.86
51603;BME280;37954;51.980;5.850;2023-12-29T07:29:02;100262.72;;;10.20;98.87
51603;BME280;37954;51.980;5.850;2023-12-29T07:33:14;100273.50;;;10.13;100.00
51603;BME280;37954;51.980;5.850;2023-12-29T07:37:26;100260.09;;;10.13;100.00
51603;BME280;37954;51.980;5.850;2023-12-29T07:41:41;100259.50;;;10.11;100.00
51603;BME280;37954;51.980;5.850;2023-12-29T07:45:55;100263.00;;;10.12;100.00
51603;BME280;37954;51.980;5.850;2023-12-29T07:50:07;100253.69;;;10.15;100.00
51603;BME280;37954;51.980;5.850;2023-12-29T07:54:19;100264.41;;;10.15;100.00
51603;BME280;37954;51.980;5.850;2023-12-29T07:58:31;100247.50;;;10.14;100.00
51603;BME280;37954;51.980;5.850;2023-12-29T08:02:43;100271.41;;;10.16;100.00
51603;BME280;37954;51.980;5.850;2023-12-29T08:06:54;100269.41;;;10.11;100.00
51603;BME280;37954;51.980;5.850;2023-12-29T08:11:12;100268.59;;;10.10;100.00
51603;BME280;37954;51.980;5.850;2023-12-29T08:15:24;100263.69;;;10.07;100.00
51603;BME280;37954;51.980;5.850;2023-12-29T08:19:36;100275.75;;;10.17;100.00
51603;BME280;37954;51.980;5.850;2023-12-29T08:23:48;100275.97;;;10.15;100.00
51603;BME280;37954;51.980;5.850;2023-12-29T08:28:00;100256.13;;;10.16;100.00
51603;BME280;37954;51.980;5.850;2023-12-29T08:32:12;100266.22;;;10.21;100.00
51603;BME280;37954;51.980;5.850;2023-12-29T08:36:24;100256.38;;;10.26;100.00
51603;BME280;37954;51.980;5.850;2023-12-29T08:40:35;100286.72;;;10.27;100.00
51603;BME280;37954;51.980;5.850;2023-12-29T08:44:47;100289.28;;;10.22;100.00
51603;BME280;37954;51.980;5.850;2023-12-29T08:48:59;100282.19;;;10.27;100.00
51603;BME280;37954;51.980;5.850;2023-12-29T08:53:12;100285.34;;;10.36;100.00
51603;BME280;37954;51.980;5.850;2023-12-29T08:57:24;100264.56;;;10.31;100.00
51603;BME280;37954;51.980;5.850;2023-12-29T09:01:36;100264.78;;;10.41;100.00
51603;BME280;37954;51.980;5.850;2023-12-29T09:05:48;100268.78;;;10.51;100.00
51603;BME280;37954;51.980;5.850;2023-12-29T09:10:00;100261.19;;;10.48;100.00
51603;BME280;37954;51.980;5.850;2023-12-29T09:14:14;100289.06;;;10.58;100.00
51603;BME280;37954;51.980;5.850;2023-12-29T09:18:25;100283.03;;;10.51;100.00
51603;BME280;37954;51.980;5.850;2023-12-29T09:22:37;100288.50;;;10.56;100.00
51603;BME280;37954;51.980;5.850;2023-12-29T09:26:49;100290.72;;;10.59;100.00
51603;BME280;37954;51.980;5.850;2023-12-29T09:31:02;100295.97;;;10.66;100.00
51603;BME280;37954;51.980;5.850;2023-12-29T09:35:14;100295.28;;;10.70;100.00
51603;BME280;37954;51.980;5.850;2023-12-29T09:39:26;100303.34;;;10.70;100.00
51603;BME280;37954;51.980;5.850;2023-12-29T09:43:40;100302.38;;;10.76;100.00
51603;BME280;37954;51.980;5.850;2023-12-29T09:47:52;100310.94;;;10.73;100.00
51603;BME280;37954;51.980;5.850;2023-12-29T09:52:07;100306.59;;;10.72;100.00
51603;BME280;37954;51.980;5.850;2023-12-29T09:56:20;100313.00;;;10.83;100.00
51603;BME280;37954;51.980;5.850;2023-12-29T10:00:33;100318.97;;;10.85;100.00
51603;BME280;37954;51.980;5.850;2023-12-29T10:04:45;100323.28;;;10.86;100.00
51603;BME280;37954;51.980;5.850;2023-12-29T10:08:57;100315.31;;;10.91;100.00
51603;BME280;37954;51.980;5.850;2023-12-29T10:13:10;100305.84;;;11.00;100.00
51603;BME280;37954;51.980;5.850;2023-12-29T10:18:11;100307.81;;;11.16;100.00
51603;BME280;37954;51.980;5.850;2023-12-29T10:22:44;100317.69;;;11.28;100.00
51603;BME280;37954;51.980;5.850;2023-12-29T10:27:00;100315.50;;;11.25;99.72
51603;BME280;37954;51.980;5.850;2023-12-29T10:31:14;100319.16;;;11.19;99.72
51603;BME280;37954;51.980;5.850;2023-12-29T10:35:27;100324.88;;;11.22;99.33
51603;BME280;37954;51.980;5.850;2023-12-29T10:39:55;100309.16;;;11.31;99.48
51603;BME280;37954;51.980;5.850;2023-12-29T10:44:07;100324.59;;;11.35;99.04
51603;BME280;37954;51.980;5.850;2023-12-29T10:48:22;100319.28;;;11.52;99.26
51603;BME280;37954;51.980;5.850;2023-12-29T10:52:35;100313.50;;;11.60;98.61
51603;BME280;37954;51.980;5.850;2023-12-29T10:57:01;100336.50;;;11.79;97.97
51603;BME280;37954;51.980;5.850;2023-12-29T11:01:16;100324.06;;;11.90;97.17
51603;BME280;37954;51.980;5.850;2023-12-29T11:05:30;100335.63;;;11.91;96.17
51603;BME280;37954;51.980;5.850;2023-12-29T11:09:42;100322.31;;;11.84;95.43
51603;BME280;37954;51.980;5.850;2023-12-29T11:13:55;100341.66;;;11.69;95.08
51603;BME280;37954;51.980;5.850;2023-12-29T11:18:09;100332.78;;;11.69;94.79
51603;BME280;37954;51.980;5.850;2023-12-29T11:22:23;100333.25;;;11.77;94.69
51603;BME280;37954;51.980;5.850;2023-12-29T11:26:36;100328.44;;;11.96;94.56
51603;BME280;37954;51.980;5.850;2023-12-29T11:30:49;100329.13;;;12.03;93.30
51603;BME280;37954;51.980;5.850;2023-12-29T11:35:12;100323.50;;;12.05;91.79
51603;BME280;37954;51.980;5.850;2023-12-29T11:39:37;100328.22;;;11.98;91.04
51603;BME280;37954;51.980;5.850;2023-12-29T11:44:00;100342.69;;;12.08;90.52
51603;BME280;37954;51.980;5.850;2023-12-29T11:48:12;100320.81;;;12.05;89.77
51603;BME280;37954;51.980;5.850;2023-12-29T11:52:38;100312.41;;;12.01;90.04
51603;BME280;37954;51.980;5.850;2023-12-29T11:56:52;100332.06;;;12.02;89.25
51603;BME280;37954;51.980;5.850;2023-12-29T12:01:04;100328.06;;;12.04;89.36
51603;BME280;37954;51.980;5.850;2023-12-29T12:05:45;100329.13;;;12.03;89.43
51603;BME280;37954;51.980;5.850;2023-12-29T12:14:51;100330.75;;;12.04;89.75
51603;BME280;37954;51.980;5.850;2023-12-29T12:19:04;100319.41;;;12.02;89.49
51603;BME280;37954;51.980;5.850;2023-12-29T12:23:21;100321.28;;;12.02;89.46
51603;BME280;37954;51.980;5.850;2023-12-29T12:27:37;100321.44;;;11.95;89.09
51603;BME280;37954;51.980;5.850;2023-12-29T12:36:05;100328.78;;;12.00;88.93
51603;BME280;37954;51.980;5.850;2023-12-29T12:40:25;100322.94;;;12.03;88.68
51603;BME280;37954;51.980;5.850;2023-12-29T12:44:40;100312.72;;;12.05;89.47
51603;BME280;37954;51.980;5.850;2023-12-29T12:48:53;100303.25;;;12.02;89.45
51603;BME280;37954;51.980;5.850;2023-12-29T12:53:06;100300.41;;;11.92;89.39
51603;BME280;37954;51.980;5.850;2023-12-29T12:57:21;100291.75;;;11.90;89.52
51603;BME280;37954;51.980;5.850;2023-12-29T13:01:36;100294.81;;;11.82;89.74
51603;BME280;37954;51.980;5.850;2023-12-29T13:05:49;100311.78;;;11.82;89.93
51603;BME280;37954;51.980;5.850;2023-12-29T13:10:02;100314.72;;;11.81;90.43
51603;BME280;37954;51.980;5.850;2023-12-29T13:14:22;100299.88;;;11.78;90.35
51603;BME280;37954;51.980;5.850;2023-12-29T13:18:34;100294.75;;;11.77;90.69
51603;BME280;37954;51.980;5.850;2023-12-29T13:22:48;100278.63;;;11.65;90.39
51603;BME280;37954;51.980;5.850;2023-12-29T13:27:05;100287.41;;;11.61;90.90
51603;BME280;37954;51.980;5.850;2023-12-29T13:31:17;100289.03;;;11.62;91.11
51603;BME280;37954;51.980;5.850;2023-12-29T13:35:34;100289.28;;;11.60;91.42
51603;BME280;37954;51.980;5.850;2023-12-29T13:44:16;100282.59;;;11.63;92.09
51603;BME280;37954;51.980;5.850;2023-12-29T13:48:31;100272.34;;;11.60;92.19
51603;BME280;37954;51.980;5.850;2023-12-29T13:52:44;100277.16;;;11.58;92.11
51603;BME280;37954;51.980;5.850;2023-12-29T13:56:55;100261.97;;;11.51;92.37
51603;BME280;37954;51.980;5.850;2023-12-29T14:01:08;100247.00;;;11.56;92.28
51603;BME280;37954;51.980;5.850;2023-12-29T14:05:47;100245.47;;;11.60;92.84
51603;BME280;37954;51.980;5.850;2023-12-29T14:10:00;100258.41;;;11.63;93.09
51603;BME280;37954;51.980;5.850;2023-12-29T14:14:12;100243.31;;;11.62;93.05
51603;BME280;37954;51.980;5.850;2023-12-29T14:23:03;100258.63;;;11.61;93.50
51603;BME280;37954;51.980;5.850;2023-12-29T14:27:16;100260.59;;;11.66;93.77
51603;BME280;37954;51.980;5.850;2023-12-29T14:31:32;100266.63;;;11.56;94.07
51603;BME280;37954;51.980;5.850;2023-12-29T14:35:45;100267.69;;;11.55;94.20
51603;BME280;37954;51.980;5.850;2023-12-29T14:39:57;100255.78;;;11.51;94.80
51603;BME280;37954;51.980;5.850;2023-12-29T14:44:09;100276.81;;;11.54;95.64
51603;BME280;37954;51.980;5.850;2023-12-29T14:48:20;100248.81;;;11.38;97.16
51603;BME280;37954;51.980;5.850;2023-12-29T14:52:36;100252.66;;;11.14;99.10
51603;BME280;37954;51.980;5.850;2023-12-29T14:56:48;100258.88;;;11.03;99.35
51603;BME280;37954;51.980;5.850;2023-12-29T15:00:59;100248.50;;;10.95;100.00
51603;BME280;37954;51.980;5.850;2023-12-29T15:05:11;100249.06;;;10.97;100.00
51603;BME280;37954;51.980;5.850;2023-12-29T15:09:23;100232.03;;;10.91;100.00
51603;BME280;37954;51.980;5.850;2023-12-29T15:13:34;100237.31;;;10.86;100.00
51603;BME280;37954;51.980;5.850;2023-12-29T15:17:46;100224.69;;;10.87;100.00
51603;BME280;37954;51.980;5.850;2023-12-29T15:21:59;100253.03;;;10.94;100.00
51603;BME280;37954;51.980;5.850;2023-12-29T15:26:11;100231.22;;;10.91;100.00
51603;BME280;37954;51.980;5.850;2023-12-29T15:30:26;100214.75;;;10.87;100.00
51603;BME280;37954;51.980;5.850;2023-12-29T15:34:38;100210.28;;;10.93;100.00
51603;BME280;37954;51.980;5.850;2023-12-29T15:38:50;100217.66;;;10.97;100.00
51603;BME280;37954;51.980;5.850;2023-12-29T15:43:01;100210.41;;;10.98;100.00
51603;BME280;37954;51.980;5.850;2023-12-29T15:47:14;100207.72;;;10.98;100.00
51603;BME280;37954;51.980;5.850;2023-12-29T15:51:26;100204.00;;;10.87;100.00
51603;BME280;37954;51.980;5.850;2023-12-29T15:55:38;100191.41;;;10.76;100.00
51603;BME280;37954;51.980;5.850;2023-12-29T15:59:50;100198.09;;;10.73;100.00
51603;BME280;37954;51.980;5.850;2023-12-29T16:04:01;100192.97;;;10.72;100.00
51603;BME280;37954;51.980;5.850;2023-12-29T16:08:14;100202.41;;;10.74;100.00
51603;BME280;37954;51.980;5.850;2023-12-29T16:12:26;100178.13;;;10.69;100.00
51603;BME280;37954;51.980;5.850;2023-12-29T16:16:38;100171.38;;;10.67;100.00
51603;BME280;37954;51.980;5.850;2023-12-29T16:20:50;100183.41;;;10.64;100.00
51603;BME280;37954;51.980;5.850;2023-12-29T16:25:01;100171.00;;;10.63;100.00
51603;BME280;37954;51.980;5.850;2023-12-29T16:29:14;100163.66;;;10.59;100.00
51603;BME280;37954;51.980;5.850;2023-12-29T16:33:29;100157.47;;;10.58;100.00
51603;BME280;37954;51.980;5.850;2023-12-29T16:37:44;100160.91;;;10.54;100.00
51603;BME280;37954;51.980;5.850;2023-12-29T16:41:56;100156.22;;;10.49;100.00
51603;BME280;37954;51.980;5.850;2023-12-29T16:46:08;100154.00;;;10.46;100.00
51603;BME280;37954;51.980;5.850;2023-12-29T16:50:20;100165.69;;;10.52;100.00
51603;BME280;37954;51.980;5.850;2023-12-29T16:54:32;100179.56;;;10.49;100.00
51603;BME280;37954;51.980;5.850;2023-12-29T16:58:46;100179.34;;;10.50;100.00
51603;BME280;37954;51.980;5.850;2023-12-29T17:02:58;100182.03;;;10.50;100.00
51603;BME280;37954;51.980;5.850;2023-12-29T17:07:10;100183.09;;;10.49;100.00
51603;BME280;37954;51.980;5.850;2023-12-29T17:11:22;100180.50;;;10.42;100.00
51603;BME280;37954;51.980;5.850;2023-12-29T17:15:33;100198.84;;;10.34;100.00
51603;BME280;37954;51.980;5.850;2023-12-29T17:19:45;100176.00;;;10.20;100.00
51603;BME280;37954;51.980;5.850;2023-12-29T17:23:57;100185.38;;;9.75;100.00
51603;BME280;37954;51.980;5.850;2023-12-29T17:28:08;100177.66;;;9.44;100.00
51603;BME280;37954;51.980;5.850;2023-12-29T17:32:20;100186.00;;;9.36;100.00
51603;BME280;37954;51.980;5.850;2023-12-29T17:36:34;100185.44;;;9.34;100.00
51603;BME280;37954;51.980;5.850;2023-12-29T17:40:46;100232.13;;;9.26;100.00
51603;BME280;37954;51.980;5.850;2023-12-29T17:44:57;100240.16;;;8.96;100.00
51603;BME280;37954;51.980;5.850;2023-12-29T17:49:09;100247.44;;;8.71;100.00
51603;BME280;37954;51.980;5.850;2023-12-29T17:53:21;100235.41;;;8.62;100.00
51603;BME280;37954;51.980;5.850;2023-12-29T17:57:32;100247.66;;;8.51;100.00
51603;BME280;37954;51.980;5.850;2023-12-29T18:01:51;100254.56;;;8.41;100.00
51603;BME280;37954;51.980;5.850;2023-12-29T18:06:13;100261.66;;;8.28;100.00
51603;BME280;37954;51.980;5.850;2023-12-29T18:10:25;100272.53;;;8.33;100.00
51603;BME280;37954;51.980;5.850;2023-12-29T18:14:40;100270.44;;;8.35;100.00
51603;BME280;37954;51.980;5.850;2023-12-29T18:18:51;100268.81;;;8.34;100.00
51603;BME280;37954;51.980;5.850;2023-12-29T18:23:03;100281.38;;;8.34;100.00
51603;BME280;37954;51.980;5.850;2023-12-29T18:27:18;100294.56;;;8.29;100.00
51603;BME280;37954;51.980;5.850;2023-12-29T18:31:30;100300.16;;;8.27;100.00
51603;BME280;37954;51.980;5.850;2023-12-29T18:35:42;100319.25;;;8.31;100.00
51603;BME280;37954;51.980;5.850;2023-12-29T18:39:53;100324.84;;;8.29;100.00
51603;BME280;37954;51.980;5.850;2023-12-29T18:44:05;100307.59;;;8.19;100.00
51603;BME280;37954;51.980;5.850;2023-12-29T18:48:17;100328.25;;;8.12;100.00
51603;BME280;37954;51.980;5.850;2023-12-29T18:52:31;100323.75;;;8.06;100.00
51603;BME280;37954;51.980;5.850;2023-12-29T18:56:43;100326.88;;;8.02;100.00
51603;BME280;37954;51.980;5.850;2023-12-29T19:00:55;100319.72;;;7.96;100.00
51603;BME280;37954;51.980;5.850;2023-12-29T19:05:12;100313.38;;;7.91;100.00
51603;BME280;37954;51.980;5.850;2023-12-29T19:09:24;100316.09;;;7.84;100.00
51603;BME280;37954;51.980;5.850;2023-12-29T19:13:38;100324.75;;;7.80;100.00
51603;BME280;37954;51.980;5.850;2023-12-29T19:17:49;100312.44;;;7.79;100.00
51603;BME280;37954;51.980;5.850;2023-12-29T19:22:01;100324.38;;;7.76;100.00
51603;BME280;37954;51.980;5.850;2023-12-29T19:26:23;100333.00;;;7.78;100.00
51603;BME280;37954;51.980;5.850;2023-12-29T19:30:35;100337.75;;;7.76;100.00
51603;BME280;37954;51.980;5.850;2023-12-29T19:34:47;100340.63;;;7.75;100.00
51603;BME280;37954;51.980;5.850;2023-12-29T19:38:59;100353.94;;;7.81;100.00
51603;BME280;37954;51.980;5.850;2023-12-29T19:43:10;100356.41;;;7.83;100.00
51603;BME280;37954;51.980;5.850;2023-12-29T19:47:22;100367.50;;;7.86;100.00
51603;BME280;37954;51.980;5.850;2023-12-29T19:51:36;100360.31;;;7.87;100.00
51603;BME280;37954;51.980;5.850;2023-12-29T19:55:48;100347.75;;;7.87;100.00
51603;BME280;37954;51.980;5.850;2023-12-29T20:00:01;100343.81;;;7.96;100.00
51603;BME280;37954;51.980;5.850;2023-12-29T20:04:15;100343.31;;;8.06;100.00
51603;BME280;37954;51.980;5.850;2023-12-29T20:08:27;100328.63;;;8.15;100.00
51603;BME280;37954;51.980;5.850;2023-12-29T20:12:39;100325.69;;;8.23;100.00
51603;BME280;37954;51.980;5.850;2023-12-29T20:16:51;100342.91;;;8.34;100.00
51603;BME280;37954;51.980;5.850;2023-12-29T20:21:03;100339.00;;;8.36;100.00
51603;BME280;37954;51.980;5.850;2023-12-29T20:25:18;100339.91;;;8.49;100.00
51603;BME280;37954;51.980;5.850;2023-12-29T20:29:32;100343.13;;;8.57;100.00
51603;BME280;37954;51.980;5.850;2023-12-29T20:33:44;100359.38;;;8.62;100.00
51603;BME280;37954;51.980;5.850;2023-12-29T20:37:56;100354.16;;;8.67;100.00
51603;BME280;37954;51.980;5.850;2023-12-29T20:42:08;100359.38;;;8.62;100.00
51603;BME280;37954;51.980;5.850;2023-12-29T20:46:21;100359.19;;;8.57;100.00
51603;BME280;37954;51.980;5.850;2023-12-29T20:50:34;100360.22;;;8.56;100.00
51603;BME280;37954;51.980;5.850;2023-12-29T20:54:45;100351.91;;;8.46;100.00
51603;BME280;37954;51.980;5.850;2023-12-29T20:58:57;100364.59;;;8.51;100.00
51603;BME280;37954;51.980;5.850;2023-12-29T21:03:09;100344.81;;;8.52;100.00
51603;BME280;37954;51.980;5.850;2023-12-29T21:07:21;100347.56;;;8.45;100.00
51603;BME280;37954;51.980;5.850;2023-12-29T21:11:32;100358.94;;;8.41;100.00
51603;BME280;37954;51.980;5.850;2023-12-29T21:15:44;100342.91;;;8.34;100.00
51603;BME280;37954;51.980;5.850;2023-12-29T21:19:56;100345.00;;;8.32;100.00
51603;BME280;37954;51.980;5.850;2023-12-29T21:24:08;100434.81;;;8.15;100.00
51603;BME280;37954;51.980;5.850;2023-12-29T21:28:19;100412.63;;;7.69;100.00
51603;BME280;37954;51.980;5.850;2023-12-29T21:32:31;100415.22;;;7.31;100.00
51603;BME280;37954;51.980;5.850;2023-12-29T21:36:45;100413.63;;;7.24;100.00
51603;BME280;37954;51.980;5.850;2023-12-29T21:40:57;100402.94;;;7.11;100.00
51603;BME280;37954;51.980;5.850;2023-12-29T21:45:09;100392.69;;;7.01;100.00
51603;BME280;37954;51.980;5.850;2023-12-29T21:49:22;100409.34;;;7.10;100.00
51603;BME280;37954;51.980;5.850;2023-12-29T21:53:35;100413.47;;;6.92;100.00
51603;BME280;37954;51.980;5.850;2023-12-29T21:57:47;100421.25;;;6.94;100.00
51603;BME280;37954;51.980;5.850;2023-12-29T22:01:58;100409.38;;;6.83;100.00
51603;BME280;37954;51.980;5.850;2023-12-29T22:06:10;100418.81;;;6.66;100.00
51603;BME280;37954;51.980;5.850;2023-12-29T22:10:22;100419.44;;;6.55;100.00
51603;BME280;37954;51.980;5.850;2023-12-29T22:14:33;100427.03;;;6.58;100.00
51603;BME280;37954;51.980;5.850;2023-12-29T22:18:45;100411.22;;;6.70;100.00
51603;BME280;37954;51.980;5.850;2023-12-29T22:22:57;100412.84;;;6.84;100.00
51603;BME280;37954;51.980;5.850;2023-12-29T22:27:09;100439.34;;;6.92;100.00